createdAt,value
2019-05-13T00:02:23.968Z,10.30
2019-05-13T00:04:49.985Z,10.20
2019-05-13T00:07:17.461Z,10.30
2019-05-13T00:09:44.949Z,10.70
2019-05-13T00:12:13.748Z,10.20
2019-05-13T00:14:40.687Z,9.70
2019-05-13T00:17:08.190Z,9.70
2019-05-13T00:19:35.673Z,9.40
2019-05-13T00:22:04.724Z,9.10
2019-05-13T00:24:33.887Z,9.30
2019-05-13T00:27:00.433Z,9.30
2019-05-13T00:29:27.936Z,9.30
2019-05-13T00:31:55.420Z,9.20
2019-05-13T00:34:24.321Z,8.80
2019-05-13T00:37:05.918Z,8.80
2019-05-13T00:39:18.370Z,9.00
2019-05-13T00:41:45.833Z,9.10
2019-05-13T00:44:14.317Z,9.10
2019-05-13T00:46:40.791Z,9.00
2019-05-13T00:49:09.042Z,8.80
2019-05-13T00:51:36.520Z,8.80
2019-05-13T00:54:04.436Z,8.70
2019-05-13T00:56:31.625Z,8.90
2019-05-13T00:58:59.216Z,9.00
2019-05-13T01:01:26.680Z,9.30
2019-05-13T01:03:54.174Z,9.40
2019-05-13T01:06:23.700Z,9.10
2019-05-13T01:08:49.887Z,9.10
2019-05-13T01:11:17.364Z,9.10
2019-05-13T01:13:45.688Z,8.90
2019-05-13T01:16:14.092Z,8.90
2019-05-13T01:18:40.657Z,9.10
2019-05-13T01:21:08.137Z,9.00
2019-05-13T01:23:36.389Z,8.80
2019-05-13T01:26:04.150Z,8.80
2019-05-13T01:28:31.442Z,9.10
2019-05-13T01:30:58.912Z,8.90
2019-05-13T01:33:27.525Z,8.70
2019-05-13T01:35:55.023Z,8.70
2019-05-13T01:40:53.954Z,8.70
2019-05-13T01:43:20.734Z,8.40
2019-05-13T01:45:49.203Z,8.50
2019-05-13T01:53:14.641Z,8.50
2019-05-13T01:55:44.077Z,8.50
2019-05-13T01:58:09.356Z,8.40
2019-05-13T02:28:08.919Z,8.60
2019-05-13T02:30:28.913Z,8.60
2019-05-13T02:32:56.424Z,8.40
2019-05-13T02:35:23.988Z,8.10
2019-05-13T02:40:22.674Z,7.90
2019-05-13T02:42:47.758Z,7.70
2019-05-13T02:45:15.216Z,7.90
2019-05-13T02:47:44.410Z,8.10
2019-05-13T02:52:40.147Z,7.40
2019-05-13T02:55:07.636Z,7.50
2019-05-13T02:57:35.904Z,7.70
2019-05-13T03:00:06.849Z,7.70
2019-05-13T03:02:34.372Z,7.70
2019-05-13T03:05:03.299Z,7.70
2019-05-13T03:07:33.080Z,7.80
2019-05-13T03:09:57.703Z,7.90
2019-05-13T03:12:25.178Z,7.80
2019-05-13T03:14:53.423Z,7.90
2019-05-13T03:17:22.319Z,7.90
2019-05-13T03:19:48.086Z,7.80
2019-05-13T03:22:15.557Z,7.90
2019-05-13T03:24:43.800Z,7.60
2019-05-13T03:29:43.213Z,7.50
2019-05-13T04:04:24.987Z,7.50
2019-05-13T04:06:53.164Z,7.50
2019-05-13T04:09:27.598Z,7.40
2019-05-13T04:11:48.226Z,7.10
2019-05-13T04:14:15.761Z,6.80
2019-05-13T04:16:43.248Z,7.10
2019-05-13T04:19:12.298Z,7.10
2019-05-13T04:21:38.188Z,7.10
2019-05-13T04:24:05.672Z,6.90
2019-05-13T04:26:33.966Z,7.10
2019-05-13T04:29:03.087Z,7.00
2019-05-13T04:31:33.063Z,7.10
2019-05-13T04:33:57.310Z,7.10
2019-05-13T04:36:24.773Z,7.00
2019-05-13T04:38:53.023Z,7.00
2019-05-13T04:41:22.593Z,7.10
2019-05-13T04:43:48.249Z,7.10
2019-05-13T04:46:16.496Z,7.30
2019-05-13T04:48:44.607Z,7.10
2019-05-13T04:51:13.654Z,6.90
2019-05-13T04:53:42.359Z,7.10
2019-05-13T04:56:06.928Z,7.00
2019-05-13T04:58:34.391Z,7.00
2019-05-13T05:01:09.020Z,7.30
2019-05-13T05:03:45.546Z,7.10
2019-05-13T05:09:06.335Z,7.20
2019-05-13T05:11:42.535Z,7.40
2019-05-13T05:14:13.064Z,7.50
2019-05-13T05:16:46.241Z,7.70
2019-05-13T05:19:36.427Z,7.70
2019-05-13T05:22:13.417Z,7.70
2019-05-13T05:24:43.396Z,7.70
2019-05-13T05:27:21.396Z,7.70
2019-05-13T05:30:02.060Z,7.90
2019-05-13T05:33:11.304Z,7.80
2019-05-13T05:35:43.949Z,7.90
2019-05-13T05:38:26.139Z,7.80
2019-05-13T05:40:53.696Z,7.70
2019-05-13T05:43:22.421Z,7.80
2019-05-13T05:45:51.252Z,7.80
2019-05-13T05:48:17.079Z,8.00
2019-05-13T05:50:44.640Z,8.10
2019-05-13T05:53:12.313Z,8.20
2019-05-13T05:55:41.343Z,8.40
2019-05-13T05:58:08.865Z,8.30
2019-05-13T06:00:37.163Z,8.50
2019-05-13T06:03:05.452Z,8.60
2019-05-13T06:05:33.705Z,8.60
2019-05-13T06:08:02.024Z,8.60
2019-05-13T06:10:44.249Z,9.00
2019-05-13T06:13:01.684Z,9.20
2019-05-13T06:15:26.833Z,9.10
2019-05-13T06:17:54.804Z,9.30
2019-05-13T06:20:24.099Z,9.50
2019-05-13T06:22:52.744Z,9.70
2019-05-13T06:25:23.271Z,9.70
2019-05-13T06:27:47.893Z,9.80
2019-05-13T06:30:15.395Z,9.80
2019-05-13T06:32:42.878Z,9.80
2019-05-13T06:35:11.601Z,10.00
2019-05-13T06:37:41.444Z,10.10
2019-05-13T06:40:07.752Z,10.10
2019-05-13T06:42:35.249Z,10.10
2019-05-13T06:45:04.396Z,10.30
2019-05-13T06:47:33.250Z,10.30
2019-05-13T06:50:02.995Z,10.30
2019-05-13T06:52:28.412Z,10.30
2019-05-13T06:54:56.654Z,10.60
2019-05-13T06:57:24.440Z,10.60
2019-05-13T06:59:52.525Z,10.80
2019-05-13T07:02:21.594Z,10.80
2019-05-13T07:04:48.085Z,10.50
2019-05-13T07:07:17.274Z,10.50
2019-05-13T07:09:43.172Z,10.30
2019-05-13T07:12:11.361Z,10.20
2019-05-13T07:14:38.159Z,10.30
2019-05-13T07:17:06.033Z,10.50
2019-05-13T07:19:33.624Z,10.60
2019-05-13T07:22:02.730Z,10.80
2019-05-13T07:24:28.645Z,11.00
2019-05-13T07:26:56.145Z,11.10
2019-05-13T07:29:24.503Z,11.50
2019-05-13T07:31:52.336Z,11.50
2019-05-13T07:34:24.107Z,11.70
2019-05-13T07:36:47.792Z,12.00
2019-05-13T07:39:15.276Z,11.90
2019-05-13T07:41:43.340Z,11.80
2019-05-13T07:44:12.042Z,11.80
2019-05-13T07:46:42.460Z,11.90
2019-05-13T07:49:07.807Z,11.90
2019-05-13T07:51:36.098Z,12.30
2019-05-13T07:54:04.647Z,12.20
2019-05-13T07:56:32.550Z,12.20
2019-05-13T07:59:01.763Z,12.00
2019-05-13T08:01:28.774Z,11.90
2019-05-13T08:03:57.318Z,11.90
2019-05-13T08:06:24.818Z,11.90
2019-05-13T08:08:52.489Z,12.00
2019-05-13T08:11:22.405Z,12.80
2019-05-13T08:13:51.556Z,12.80
2019-05-13T08:16:17.235Z,12.40
2019-05-13T08:18:44.791Z,12.30
2019-05-13T08:21:12.408Z,12.60
2019-05-13T08:23:41.725Z,12.60
2019-05-13T08:26:09.224Z,12.50
2019-05-13T08:28:52.670Z,12.50
2019-05-13T08:31:04.257Z,12.50
2019-05-13T08:33:32.204Z,12.70
2019-05-13T08:36:01.609Z,12.80
2019-05-13T08:38:28.468Z,12.70
2019-05-13T08:40:55.951Z,12.70
2019-05-13T08:43:23.448Z,12.80
2019-05-13T08:45:52.395Z,12.80
2019-05-13T08:48:18.434Z,12.90
2019-05-13T08:50:47.521Z,12.90
2019-05-13T08:53:15.194Z,12.90
2019-05-13T08:55:43.127Z,12.90
2019-05-13T08:58:12.472Z,13.30
2019-05-13T09:00:44.034Z,13.30
2019-05-13T09:03:12.185Z,13.40
2019-05-13T09:05:41.307Z,13.50
2019-05-13T09:08:06.656Z,13.50
2019-05-13T09:10:35.002Z,13.60
2019-05-13T09:13:02.600Z,13.60
2019-05-13T09:15:31.652Z,13.60
2019-05-13T09:17:57.706Z,13.60
2019-05-13T09:20:25.964Z,14.00
2019-05-13T09:22:53.550Z,14.00
2019-05-13T09:25:21.598Z,14.00
2019-05-13T09:27:51.364Z,13.80
2019-05-13T09:30:17.418Z,13.90
2019-05-13T09:32:44.907Z,14.10
2019-05-13T09:35:12.377Z,14.30
2019-05-13T09:37:42.167Z,14.30
2019-05-13T09:40:07.500Z,14.30
2019-05-13T09:42:48.222Z,14.10
2019-05-13T09:45:05.104Z,14.20
2019-05-13T09:47:32.578Z,14.20
2019-05-13T09:50:00.856Z,14.10
2019-05-13T09:52:28.966Z,14.10
2019-05-13T09:54:56.475Z,14.10
2019-05-13T09:57:25.698Z,14.40
2019-05-13T09:59:53.189Z,14.40
2019-05-13T10:02:21.437Z,14.30
2019-05-13T10:04:48.408Z,14.00
2019-05-13T10:07:16.664Z,14.20
2019-05-13T10:09:48.094Z,14.20
2019-05-13T10:12:12.270Z,14.40
2019-05-13T10:14:39.166Z,14.50
2019-05-13T10:17:07.526Z,14.70
2019-05-13T10:19:35.091Z,14.70
2019-05-13T10:22:04.288Z,14.80
2019-05-13T10:24:32.772Z,14.80
2019-05-13T10:27:02.427Z,14.50
2019-05-13T10:29:27.691Z,14.50
2019-05-13T10:31:55.264Z,14.70
2019-05-13T10:34:22.947Z,14.80
2019-05-13T10:36:51.514Z,14.60
2019-05-13T10:39:19.488Z,14.60
2019-05-13T10:41:46.969Z,14.60
2019-05-13T10:44:15.359Z,15.00
2019-05-13T10:46:43.597Z,15.00
2019-05-13T10:49:12.258Z,15.00
2019-05-13T10:51:38.716Z,15.00
2019-05-13T10:54:06.224Z,14.80
2019-05-13T10:56:33.764Z,14.80
2019-05-13T10:59:02.645Z,14.90
2019-05-13T11:01:32.607Z,15.20
2019-05-13T11:03:57.184Z,15.10
2019-05-13T11:06:24.849Z,15.20
2019-05-13T11:08:53.301Z,15.20
2019-05-13T11:11:21.848Z,15.20
2019-05-13T11:13:54.513Z,15.30
2019-05-13T11:16:15.803Z,15.30
2019-05-13T11:18:43.595Z,15.30
2019-05-13T11:21:12.994Z,15.50
2019-05-13T11:23:39.444Z,15.20
2019-05-13T11:26:07.031Z,15.20
2019-05-13T11:28:34.571Z,15.30
2019-05-13T11:31:03.265Z,15.40
2019-05-13T11:33:31.845Z,15.90
2019-05-13T11:35:58.770Z,16.00
2019-05-13T11:38:26.243Z,16.00
2019-05-13T11:40:54.552Z,16.10
2019-05-13T11:43:27.564Z,15.80
2019-05-13T11:45:50.886Z,15.40
2019-05-13T11:48:17.149Z,15.30
2019-05-13T11:50:49.776Z,15.70
2019-05-13T11:53:31.348Z,15.70
2019-05-13T11:55:42.418Z,15.70
2019-05-13T11:58:08.668Z,15.90
2019-05-13T12:00:42.701Z,15.70
2019-05-13T12:03:09.772Z,15.50
2019-05-13T12:05:37.270Z,15.40
2019-05-13T12:08:05.621Z,15.90
2019-05-13T12:10:33.288Z,15.90
2019-05-13T12:13:00.781Z,16.40
2019-05-13T12:15:45.497Z,16.10
2019-05-13T12:17:57.214Z,16.10
2019-05-13T12:20:26.316Z,16.30
2019-05-13T12:22:53.918Z,16.30
2019-05-13T12:25:22.428Z,15.90
2019-05-13T12:27:51.868Z,16.50
2019-05-13T12:30:17.981Z,16.60
2019-05-13T12:32:45.656Z,16.60
2019-05-13T12:35:13.581Z,16.50
2019-05-13T12:37:42.136Z,16.20
2019-05-13T12:40:08.167Z,16.00
2019-05-13T12:42:42.771Z,16.00
2019-05-13T12:45:09.661Z,16.50
2019-05-13T12:47:33.144Z,16.50
2019-05-13T12:50:03.395Z,17.00
2019-05-13T12:52:32.265Z,17.00
2019-05-13T12:54:57.150Z,16.70
2019-05-13T12:57:25.404Z,16.20
2019-05-13T12:59:53.716Z,16.50
2019-05-13T13:02:22.590Z,16.50
2019-05-13T13:05:09.371Z,16.80
2019-05-13T13:07:17.801Z,16.50
2019-05-13T13:09:45.301Z,16.50
2019-05-13T13:12:13.574Z,15.90
2019-05-13T13:14:44.255Z,16.60
2019-05-13T13:17:12.906Z,16.60
2019-05-13T13:19:37.688Z,16.60
2019-05-13T13:22:07.896Z,16.70
2019-05-13T13:24:32.669Z,16.30
2019-05-13T13:27:00.175Z,16.20
2019-05-13T13:29:27.733Z,15.80
2019-05-13T13:31:56.024Z,16.30
2019-05-13T13:34:26.008Z,16.00
2019-05-13T13:36:52.685Z,16.60
2019-05-13T13:39:17.759Z,17.30
2019-05-13T13:41:45.239Z,17.00
2019-05-13T13:44:13.021Z,17.10
2019-05-13T13:46:44.608Z,17.20
2019-05-13T13:49:12.640Z,17.20
2019-05-13T13:51:37.851Z,17.50
2019-05-13T13:54:05.410Z,17.50
2019-05-13T13:56:33.237Z,17.60
2019-05-13T13:59:04.335Z,17.30
2019-05-13T14:01:28.233Z,17.50
2019-05-13T14:03:56.594Z,16.90
2019-05-13T14:07:22.327Z,16.90
2019-05-13T14:08:52.117Z,17.10
2019-05-13T14:11:19.187Z,17.40
2019-05-13T14:13:46.679Z,17.60
2019-05-13T14:16:28.704Z,18.10
2019-05-13T14:18:42.439Z,18.10
2019-05-13T14:21:09.957Z,17.50
2019-05-13T14:23:38.947Z,17.60
2019-05-13T14:26:06.434Z,17.60
2019-05-13T14:28:33.930Z,17.70
2019-05-13T14:31:01.911Z,17.60
2019-05-13T14:33:32.609Z,17.90
2019-05-13T14:36:01.272Z,17.70
2019-05-13T14:38:26.918Z,17.90
2019-05-13T14:40:55.381Z,17.90
2019-05-13T14:43:23.096Z,18.10
2019-05-13T14:45:52.121Z,17.80
2019-05-13T14:48:19.014Z,17.40
2019-05-13T14:50:47.258Z,17.60
2019-05-13T14:53:14.752Z,17.60
2019-05-13T14:55:43.131Z,17.90
2019-05-13T14:58:10.629Z,17.90
2019-05-13T15:00:38.971Z,18.00
2019-05-13T15:03:06.480Z,18.00
2019-05-13T15:05:33.966Z,17.70
2019-05-13T15:08:01.461Z,17.80
2019-05-13T15:10:30.923Z,17.40
2019-05-13T15:12:57.200Z,17.80
2019-05-13T15:15:24.687Z,17.80
2019-05-13T15:17:52.954Z,17.40
2019-05-13T15:20:21.814Z,17.50
2019-05-13T15:22:48.787Z,17.50
2019-05-13T15:25:16.466Z,17.80
2019-05-13T15:27:44.029Z,18.10
2019-05-13T15:30:18.352Z,17.90
2019-05-13T15:32:41.995Z,17.80
2019-05-13T15:35:10.077Z,18.10
2019-05-13T15:37:35.908Z,18.20
2019-05-13T15:40:05.572Z,17.80
2019-05-13T15:42:33.089Z,17.80
2019-05-13T15:45:01.984Z,17.40
2019-05-13T15:47:29.812Z,17.20
2019-05-13T15:49:58.151Z,17.80
2019-05-13T15:52:25.702Z,17.70
2019-05-13T15:54:53.535Z,18.10
2019-05-13T15:57:21.419Z,17.70
2019-05-13T15:59:48.651Z,17.80
2019-05-13T16:02:16.268Z,17.50
2019-05-13T16:04:52.697Z,17.30
2019-05-13T16:07:12.223Z,17.20
2019-05-13T16:09:42.086Z,17.50
2019-05-13T16:12:08.368Z,16.80
2019-05-13T16:14:36.747Z,16.80
2019-05-13T16:17:04.249Z,17.20
2019-05-13T16:19:32.828Z,18.10
2019-05-13T16:22:01.354Z,18.00
2019-05-13T16:24:28.332Z,18.00
2019-05-13T16:26:55.897Z,17.80
2019-05-13T16:29:24.495Z,17.30
2019-05-13T16:31:52.174Z,18.10
2019-05-13T16:34:22.297Z,17.20
2019-05-13T16:36:48.714Z,17.30
2019-05-13T16:39:16.798Z,17.30
2019-05-13T16:41:44.299Z,17.10
2019-05-13T16:44:12.183Z,16.90
2019-05-13T16:46:42.333Z,17.60
2019-05-13T16:49:07.625Z,17.60
2019-05-13T16:51:35.137Z,17.40
2019-05-13T16:54:04.834Z,16.90
2019-05-13T16:56:33.435Z,16.90
2019-05-13T16:59:01.623Z,17.50
2019-05-13T17:01:28.973Z,17.00
2019-05-13T17:03:57.247Z,16.60
2019-05-13T17:06:24.719Z,16.60
2019-05-13T17:08:52.267Z,16.90
2019-05-13T17:11:19.827Z,16.20
2019-05-13T17:13:47.499Z,16.50
2019-05-13T17:16:15.057Z,16.20
2019-05-13T17:18:42.626Z,15.90
2019-05-13T17:21:10.210Z,15.10
2019-05-13T17:23:37.777Z,15.60
2019-05-13T17:26:06.138Z,17.10
2019-05-13T17:28:34.296Z,17.10
2019-05-13T17:31:02.220Z,17.10
2019-05-13T17:33:28.737Z,16.20
2019-05-13T17:35:56.221Z,17.00
2019-05-13T17:38:24.591Z,16.80
2019-05-13T17:40:53.141Z,16.80
2019-05-13T17:43:21.317Z,16.20
2019-05-13T17:45:47.970Z,16.30
2019-05-13T17:48:25.835Z,16.20
2019-05-13T17:50:43.811Z,16.70
2019-05-13T17:53:11.532Z,16.60
2019-05-13T17:55:38.839Z,16.40
2019-05-13T17:58:06.428Z,16.20
2019-05-13T18:00:33.983Z,16.10
2019-05-13T18:03:01.927Z,15.90
2019-05-13T18:05:31.377Z,16.00
2019-05-13T18:07:57.702Z,16.00
2019-05-13T18:10:25.444Z,16.00
2019-05-13T18:12:52.969Z,15.70
2019-05-13T18:15:22.161Z,15.80
2019-05-13T18:17:48.769Z,15.50
2019-05-13T18:20:16.518Z,15.50
2019-05-13T18:22:43.991Z,15.50
2019-05-13T18:25:12.191Z,15.20
2019-05-13T18:27:41.637Z,16.30
2019-05-13T18:30:08.437Z,16.10
2019-05-13T18:32:35.927Z,16.00
2019-05-13T18:35:04.297Z,16.50
2019-05-13T18:37:31.916Z,16.50
2019-05-13T18:39:59.433Z,16.30
2019-05-13T18:42:27.711Z,16.00
2019-05-13T18:44:55.354Z,15.90
2019-05-13T18:47:23.112Z,15.10
2019-05-13T18:49:50.697Z,15.40
2019-05-13T18:52:18.258Z,15.50
2019-05-13T18:54:45.815Z,15.00
2019-05-13T18:57:13.394Z,15.00
2019-05-13T18:59:41.733Z,14.50
2019-05-13T19:02:12.051Z,14.70
2019-05-13T19:04:38.230Z,14.50
2019-05-13T19:07:07.830Z,14.40
2019-05-13T19:09:34.129Z,14.30
2019-05-13T19:12:01.702Z,14.20
2019-05-13T19:14:31.768Z,15.00
2019-05-13T19:16:57.514Z,15.00
2019-05-13T19:19:25.771Z,14.50
2019-05-13T19:21:53.401Z,14.50
2019-05-13T19:24:20.892Z,14.40
2019-05-13T19:26:48.402Z,14.10
2019-05-13T19:29:15.899Z,14.80
2019-05-13T19:31:44.686Z,14.20
2019-05-13T19:34:12.783Z,13.40
2019-05-13T19:36:39.959Z,14.00
2019-05-13T19:39:08.247Z,14.40
2019-05-13T19:41:36.500Z,13.90
2019-05-13T19:44:04.067Z,13.90
2019-05-13T19:46:31.638Z,14.20
2019-05-13T19:49:01.431Z,13.80
2019-05-13T19:51:28.397Z,13.80
2019-05-13T19:53:55.769Z,14.00
2019-05-13T19:56:24.040Z,14.10
2019-05-13T19:58:51.608Z,14.10
2019-05-13T20:01:21.520Z,13.40
2019-05-13T20:03:48.557Z,13.00
2019-05-13T20:06:16.654Z,13.00
2019-05-13T20:08:44.170Z,12.40
2019-05-13T20:11:11.761Z,12.70
2019-05-13T20:13:41.838Z,13.80
2019-05-13T20:16:08.245Z,14.10
2019-05-13T20:18:36.534Z,13.70
2019-05-13T20:21:05.015Z,13.80
2019-05-13T20:23:33.571Z,13.80
2019-05-13T20:26:01.170Z,14.30
2019-05-13T20:28:28.638Z,13.80
2019-05-13T20:30:56.891Z,12.90
2019-05-13T20:33:26.001Z,13.90
2019-05-13T20:35:53.479Z,13.90
2019-05-13T20:38:22.225Z,13.10
2019-05-13T20:40:51.811Z,13.10
2019-05-13T20:43:16.893Z,13.70
2019-05-13T20:45:45.244Z,13.60
2019-05-13T20:48:13.212Z,13.60
2019-05-13T20:50:41.403Z,13.00
2019-05-13T20:53:11.365Z,13.70
2019-05-13T20:55:36.823Z,13.40
2019-05-13T20:58:04.341Z,12.40
2019-05-13T21:00:31.903Z,13.00
2019-05-13T21:02:59.393Z,12.30
2019-05-13T21:05:26.991Z,12.60
2019-05-13T21:07:54.678Z,12.60
2019-05-13T21:10:23.091Z,12.90
2019-05-13T21:12:51.449Z,12.90
2019-05-13T21:15:18.372Z,12.60
2019-05-13T21:17:46.751Z,13.30
2019-05-13T21:20:21.432Z,13.90
2019-05-13T21:22:42.696Z,13.00
2019-05-13T21:25:10.349Z,13.00
2019-05-13T21:27:37.858Z,12.40
2019-05-13T21:30:06.222Z,12.70
2019-05-13T21:32:33.689Z,12.70
2019-05-13T21:35:01.942Z,12.60
2019-05-13T21:37:32.452Z,11.70
2019-05-13T21:40:00.006Z,11.60
2019-05-13T21:42:27.484Z,12.20
2019-05-13T21:44:55.083Z,12.80
2019-05-13T21:47:22.672Z,13.50
2019-05-13T21:49:51.633Z,12.60
2019-05-13T21:52:21.538Z,12.50
2019-05-13T21:54:46.522Z,13.20
2019-05-13T21:57:14.113Z,12.30
2019-05-13T21:59:44.910Z,12.20
2019-05-13T22:02:09.186Z,11.90
2019-05-13T22:04:37.578Z,13.00
2019-05-13T22:07:05.260Z,13.00
2019-05-13T22:09:32.993Z,12.80
2019-05-13T22:12:02.006Z,13.40
2019-05-13T22:14:28.928Z,13.40
2019-05-13T22:16:56.731Z,12.60
2019-05-13T22:19:24.019Z,12.10
2019-05-13T22:21:51.628Z,12.50
2019-05-13T22:24:19.167Z,12.50
2019-05-13T22:26:46.731Z,12.30
2019-05-13T22:29:14.325Z,12.20
2019-05-13T22:31:42.843Z,12.80
2019-05-13T22:34:12.111Z,12.80
2019-05-13T22:36:38.635Z,12.40
2019-05-13T22:39:06.289Z,12.40
2019-05-13T22:41:33.865Z,12.50
2019-05-13T22:44:01.640Z,12.60
2019-05-13T22:46:32.036Z,12.30
2019-05-13T22:48:56.716Z,11.80
2019-05-13T22:51:24.191Z,11.70
2019-05-13T22:53:51.825Z,11.50
2019-05-13T22:56:21.867Z,10.90
2019-05-13T22:58:47.633Z,10.90
2019-05-13T23:01:15.194Z,11.50
2019-05-13T23:03:42.759Z,11.70
2019-05-13T23:06:12.105Z,11.00
2019-05-13T23:08:37.750Z,11.40
2019-05-13T23:11:05.262Z,11.60
2019-05-13T23:13:33.628Z,11.10
2019-05-13T23:16:02.524Z,11.90
2019-05-13T23:18:31.692Z,11.90
2019-05-13T23:20:59.169Z,11.90
2019-05-13T23:23:26.649Z,11.90
2019-05-13T23:25:56.673Z,11.70
2019-05-13T23:28:22.599Z,12.10
2019-05-13T23:30:51.137Z,12.00
2019-05-13T23:33:18.206Z,12.00
2019-05-13T23:35:45.787Z,11.80
2019-05-13T23:38:13.319Z,11.80
2019-05-13T23:40:42.097Z,11.30
2019-05-13T23:43:08.540Z,11.30
2019-05-13T23:45:36.022Z,11.00
2019-05-13T23:48:04.686Z,11.30
2019-05-13T23:50:32.252Z,11.20
2019-05-13T23:53:00.597Z,11.40
2019-05-13T23:55:32.217Z,11.40
2019-05-13T23:57:57.670Z,11.40
